X  CloseMetar Aviation Weather Data     KSDL Scottsdale Airport

Temperature

102°F Temperature

59°F Dewpoint

24% Humidity



Wind

 3 MPH

 5 KM/H

 1 M/S

 3 KTS



Calm
Due North
Current Conditions

Clear Clear
Pressure 1013.92 (hPa) - 29.94 (in)
Visibility 9.9 (mi) - 16 (km)
Airport
Airport-code KSDL

Location Scottsdale Airport 15 (mi)

Metar:
KSDL 031853Z VRB03KT 10SM CLR 39/15 A2994 RMK AO2 SLP106 T03940150

Time: 08-03-2020 11:53